Time;durP1;ratioP1;P1;durP2;ratioP2;P2;SDS_P1;SDS_P2;PMS_P1;PMS_P2;Temp;Humidity;BMP_temperature;BMP_pressure;BME280_temperature;BME280_humidity;BME280_pressure;Samples;Min_cycle;Max_cycle;Signal;HPM_P1;HPM_P2
2023/03/16 00:01:16;;;;;;;;;;;-0.70;99.90;;;;;;5064702;28;19927;-70
2023/03/16 00:03:49;;;;;;;;;;;-0.80;99.90;;;;;;5063795;28;19986;-71
2023/03/16 00:06:15;;;;;;;;;;;-0.80;99.90;;;;;;5064684;28;19920;-70
2023/03/16 00:08:42;;;;;;;;;;;-0.80;99.90;;;;;;5064869;28;19984;-71
2023/03/16 00:11:11;;;;;;;;;;;-0.80;99.90;;;;;;5064623;28;20332;-70
2023/03/16 00:13:38;;;;;;;;;;;-0.80;99.90;;;;;;5064748;28;20281;-70
2023/03/16 00:16:06;;;;;;;;;;;-0.70;99.90;;;;;;5064242;28;19935;-71
2023/03/16 00:18:40;;;;;;;;;;;-0.80;99.90;;;;;;5064819;28;20176;-70
2023/03/16 00:21:06;;;;;;;;;;;-0.80;99.90;;;;;;5064821;28;19988;-70
2023/03/16 00:23:34;;;;;;;;;;;-0.90;99.90;;;;;;5064946;28;19931;-70
2023/03/16 00:26:02;;;;;;;;;;;-0.90;99.90;;;;;;5064466;28;19982;-71
2023/03/16 00:28:33;;;;;;;;;;;-0.90;99.90;;;;;;5064842;28;19986;-70
2023/03/16 00:31:01;;;;;;;;;;;-1.00;99.90;;;;;;5064557;28;20234;-71
2023/03/16 00:33:33;;;;;;;;;;;-1.00;99.90;;;;;;5063916;28;20493;-70
2023/03/16 00:36:03;;;;;;;;;;;-1.10;99.90;;;;;;5063487;28;20302;-70
2023/03/16 00:38:31;;;;;;;;;;;-1.10;99.90;;;;;;5064424;28;19967;-70
2023/03/16 00:40:57;;;;;;;;;;;-1.10;99.90;;;;;;5064591;28;19984;-70
2023/03/16 00:43:26;;;;;;;;;;;-1.10;99.90;;;;;;5064539;28;19959;-71
2023/03/16 00:45:57;;;;;;;;;;;-1.10;99.90;;;;;;5064005;28;19920;-71
2023/03/16 00:48:25;;;;;;;;;;;-1.20;99.90;;;;;;5063961;28;20209;-70
2023/03/16 00:50:53;;;;;;;;;;;-1.30;99.90;;;;;;5064528;28;19921;-70
2023/03/16 00:53:21;;;;;;;;;;;-1.30;99.90;;;;;;5064098;28;20120;-71
2023/03/16 00:55:47;;;;;;;;;;;-1.40;99.90;;;;;;5063798;28;20010;-71
2023/03/16 00:58:14;;;;;;;;;;;-1.40;99.90;;;;;;5063609;28;19955;-70
2023/03/16 01:00:41;;;;;;;;;;;-1.40;99.90;;;;;;5064394;28;19984;-70
2023/03/16 01:03:08;;;;;;;;;;;-1.40;99.90;;;;;;5064246;28;20151;-70
2023/03/16 01:05:40;;;;;;;;;;;-1.40;99.90;;;;;;5064146;28;19964;-72
2023/03/16 01:08:13;;;;;;;;;;;-1.50;99.90;;;;;;5063247;28;20148;-70
2023/03/16 01:10:40;;;;;;;;;;;-1.50;99.90;;;;;;5063839;28;20080;-70
2023/03/16 01:13:07;;;;;;;;;;;-1.50;99.90;;;;;;5063761;28;19958;-71
2023/03/16 01:15:34;;;;;;;;;;;-1.50;99.90;;;;;;5063822;28;19984;-70
2023/03/16 01:18:01;;;;;;;;;;;-1.50;99.90;;;;;;5063324;28;19921;-70
2023/03/16 01:20:27;;;;;;;;;;;-1.50;99.90;;;;;;5064089;28;19920;-70
2023/03/16 01:22:56;;;;;;;;;;;-1.50;99.90;;;;;;5063919;28;19988;-70
2023/03/16 01:25:23;;;;;;;;;;;-1.50;99.90;;;;;;5063376;28;19927;-70
2023/03/16 01:27:49;;;;;;;;;;;-1.50;99.90;;;;;;5063197;28;19964;-70
2023/03/16 01:30:16;;;;;;;;;;;-1.50;99.90;;;;;;5063977;28;19976;-71
2023/03/16 01:32:42;;;;;;;;;;;-1.50;99.90;;;;;;5063533;28;20283;-71
2023/03/16 01:35:09;;;;;;;;;;;-1.50;99.90;;;;;;5063635;28;19989;-71
2023/03/16 01:37:36;;;;;;;;;;;-1.40;99.90;;;;;;5063404;28;19988;-71
2023/03/16 01:40:05;;;;;;;;;;;-1.50;99.90;;;;;;5063923;28;19985;-70
2023/03/16 01:42:32;;;;;;;;;;;-1.50;99.90;;;;;;5063683;28;19920;-71
2023/03/16 01:45:04;;;;;;;;;;;-1.50;99.90;;;;;;5063312;28;19971;-71
2023/03/16 01:47:36;;;;;;;;;;;-1.60;99.90;;;;;;5064343;28;19920;-70
2023/03/16 01:50:04;;;;;;;;;;;-1.70;99.90;;;;;;5067917;28;20177;-70
2023/03/16 01:52:32;;;;;;;;;;;-1.70;99.90;;;;;;5067781;28;19928;-70
2023/03/16 01:55:02;;;;;;;;;;;-1.60;99.90;;;;;;5067670;28;19920;-71
2023/03/16 01:57:35;;;;;;;;;;;-1.60;99.90;;;;;;5067300;28;19984;-71
2023/03/16 02:00:08;;;;;;;;;;;-1.60;99.90;;;;;;5067380;28;20212;-71
2023/03/16 02:02:35;;;;;;;;;;;-1.50;99.90;;;;;;5066510;28;20254;-70
2023/03/16 02:05:03;;;;;;;;;;;-1.50;99.90;;;;;;5067331;28;19975;-70
2023/03/16 02:07:33;;;;;;;;;;;-1.50;99.90;;;;;;5067128;28;19997;-70
2023/03/16 02:10:01;;;;;;;;;;;-1.40;99.90;;;;;;5067576;28;20093;-71
2023/03/16 02:12:28;;;;;;;;;;;-1.40;99.90;;;;;;5067192;28;19947;-70
2023/03/16 02:14:56;;;;;;;;;;;-1.40;99.90;;;;;;5067426;28;19921;-71
2023/03/16 02:17:23;;;;;;;;;;;-1.40;99.90;;;;;;5066762;28;19987;-70
2023/03/16 02:19:56;;;;;;;;;;;-1.40;99.90;;;;;;5067220;28;19921;-71
2023/03/16 02:22:23;;;;;;;;;;;-1.40;99.90;;;;;;5067003;28;19927;-70
2023/03/16 02:24:50;;;;;;;;;;;-1.50;99.90;;;;;;5066671;28;19927;-70
2023/03/16 02:27:20;;;;;;;;;;;-1.50;99.90;;;;;;5066432;28;19942;-70
2023/03/16 02:30:01;;;;;;;;;;;-1.50;99.90;;;;;;5067096;28;20038;-70
2023/03/16 02:32:32;;;;;;;;;;;-1.50;99.90;;;;;;5064873;28;19921;-69
2023/03/16 02:35:00;;;;;;;;;;;-1.40;99.90;;;;;;5066671;28;19956;-70
2023/03/16 02:37:26;;;;;;;;;;;-1.40;99.90;;;;;;5066099;28;19928;-70
2023/03/16 02:39:53;;;;;;;;;;;-1.50;99.90;;;;;;5066841;28;20151;-70
2023/03/16 02:42:22;;;;;;;;;;;-1.50;99.90;;;;;;5066507;28;20114;-70
2023/03/16 02:44:52;;;;;;;;;;;-1.50;99.90;;;;;;5066312;28;19921;-70
2023/03/16 02:47:23;;;;;;;;;;;-1.50;99.90;;;;;;5065917;28;19928;-70
2023/03/16 02:49:51;;;;;;;;;;;-1.50;99.90;;;;;;5066349;28;19991;-70
2023/03/16 02:52:17;;;;;;;;;;;-1.50;99.90;;;;;;5066532;28;20006;-70
2023/03/16 02:54:44;;;;;;;;;;;-1.40;99.90;;;;;;5066456;28;19920;-70
2023/03/16 02:57:11;;;;;;;;;;;-1.40;99.90;;;;;;5065813;28;20179;-69
2023/03/16 02:59:38;;;;;;;;;;;-1.50;99.90;;;;;;5065375;28;20000;-70
2023/03/16 03:02:04;;;;;;;;;;;-1.50;99.90;;;;;;5065979;28;19927;-72
2023/03/16 03:04:33;;;;;;;;;;;-1.50;99.90;;;;;;5053556;28;19992;-70
2023/03/16 03:07:03;;;;;;;;;;;-1.50;99.90;;;;;;5045919;28;19984;-70
2023/03/16 03:09:31;;;;;;;;;;;-1.50;99.90;;;;;;5046042;28;19957;-70
2023/03/16 03:11:58;;;;;;;;;;;-1.40;99.90;;;;;;5046006;28;19922;-70
2023/03/16 03:14:27;;;;;;;;;;;-1.50;99.90;;;;;;5045859;28;19992;-70
2023/03/16 03:16:54;;;;;;;;;;;-1.40;99.90;;;;;;5055323;28;19962;-70
2023/03/16 03:19:21;;;;;;;;;;;-1.40;99.90;;;;;;5066040;28;19921;-70
2023/03/16 03:21:48;;;;;;;;;;;-1.40;99.90;;;;;;5066058;28;19925;-70
2023/03/16 03:24:16;;;;;;;;;;;-1.40;99.90;;;;;;5065884;28;19927;-70
2023/03/16 03:26:44;;;;;;;;;;;-1.40;99.90;;;;;;5065039;28;19952;-70
2023/03/16 03:29:11;;;;;;;;;;;-1.40;99.90;;;;;;5065561;28;19921;-70
2023/03/16 03:31:38;;;;;;;;;;;-1.40;99.90;;;;;;5065945;28;20120;-70
2023/03/16 03:34:05;;;;;;;;;;;-1.40;99.90;;;;;;5065504;28;19956;-70
2023/03/16 03:36:32;;;;;;;;;;;-1.40;99.90;;;;;;5064703;28;19927;-70
2023/03/16 03:38:58;;;;;;;;;;;-1.40;99.90;;;;;;5065519;28;19984;-70
2023/03/16 03:41:26;;;;;;;;;;;-1.40;99.90;;;;;;5065746;28;19988;-70
2023/03/16 03:43:53;;;;;;;;;;;-1.40;99.90;;;;;;5065746;28;19921;-70
2023/03/16 03:46:19;;;;;;;;;;;-1.50;99.90;;;;;;5064799;28;19991;-71
2023/03/16 03:48:46;;;;;;;;;;;-1.40;99.90;;;;;;5062819;28;20004;-70
2023/03/16 03:51:13;;;;;;;;;;;-1.50;99.90;;;;;;5065327;28;19927;-70
2023/03/16 03:53:40;;;;;;;;;;;-1.50;99.90;;;;;;5065495;28;20206;-70
2023/03/16 03:56:06;;;;;;;;;;;-1.50;99.90;;;;;;5064554;28;19983;-71
2023/03/16 03:58:34;;;;;;;;;;;-1.60;99.90;;;;;;5065260;28;19988;-70
2023/03/16 04:01:01;;;;;;;;;;;-1.60;99.90;;;;;;5065098;28;19927;-70
2023/03/16 04:03:29;;;;;;;;;;;-1.60;99.90;;;;;;5062773;28;19984;-70
2023/03/16 04:05:56;;;;;;;;;;;-1.60;99.90;;;;;;5064830;28;19927;-70
2023/03/16 04:08:23;;;;;;;;;;;-1.50;99.90;;;;;;5064848;28;19988;-69
2023/03/16 04:10:50;;;;;;;;;;;-1.50;99.90;;;;;;5064774;28;19984;-70
2023/03/16 04:13:16;;;;;;;;;;;-1.50;99.90;;;;;;5064845;28;19967;-70
2023/03/16 04:15:45;;;;;;;;;;;-1.50;99.90;;;;;;5064892;28;19988;-71
2023/03/16 04:18:12;;;;;;;;;;;-1.50;99.90;;;;;;5064359;28;19920;-70
2023/03/16 04:20:39;;;;;;;;;;;-1.50;99.90;;;;;;5064827;28;20205;-70
2023/03/16 04:23:05;;;;;;;;;;;-1.50;99.90;;;;;;5059165;28;19963;-70
2023/03/16 04:25:33;;;;;;;;;;;-1.50;99.90;;;;;;5044573;28;19992;-70
2023/03/16 04:28:00;;;;;;;;;;;-1.50;99.90;;;;;;5061499;28;19958;-70
2023/03/16 04:30:27;;;;;;;;;;;-1.50;99.90;;;;;;5065100;28;19921;-70
2023/03/16 04:32:55;;;;;;;;;;;-1.50;99.90;;;;;;5064780;28;19962;-70
2023/03/16 04:35:22;;;;;;;;;;;-1.50;99.90;;;;;;5064725;28;19976;-70
2023/03/16 04:37:48;;;;;;;;;;;-1.50;99.90;;;;;;5064394;28;20172;-70
2023/03/16 04:40:15;;;;;;;;;;;-1.50;99.90;;;;;;5064347;28;19985;-70
2023/03/16 04:42:42;;;;;;;;;;;-1.50;99.90;;;;;;5064587;28;19956;-70
2023/03/16 04:45:09;;;;;;;;;;;-1.60;99.90;;;;;;5064166;28;19928;-71
2023/03/16 04:47:36;;;;;;;;;;;-1.50;99.90;;;;;;5063537;28;20280;-70
2023/03/16 04:50:05;;;;;;;;;;;-1.50;99.90;;;;;;5064545;28;20148;-70
2023/03/16 04:52:31;;;;;;;;;;;-1.50;99.90;;;;;;5051455;28;20280;-71
2023/03/16 04:54:58;;;;;;;;;;;-1.50;99.90;;;;;;5063716;28;19959;-71
2023/03/16 04:57:24;;;;;;;;;;;-1.50;99.90;;;;;;5063389;28;19955;-70
2023/03/16 04:59:51;;;;;;;;;;;-1.40;99.90;;;;;;5063681;28;20238;-70
2023/03/16 05:02:18;;;;;;;;;;;-1.40;99.90;;;;;;5063467;28;19952;-70
2023/03/16 05:04:45;;;;;;;;;;;-1.50;99.90;;;;;;5064130;28;19956;-70
2023/03/16 05:07:13;;;;;;;;;;;-1.40;99.90;;;;;;5063886;28;19996;-70
2023/03/16 05:09:40;;;;;;;;;;;-1.40;99.90;;;;;;5064145;28;19921;-71
2023/03/16 05:12:07;;;;;;;;;;;-1.40;99.90;;;;;;5063848;28;20116;-70
2023/03/16 05:14:35;;;;;;;;;;;-1.40;99.90;;;;;;5063767;28;19927;-70
2023/03/16 05:17:02;;;;;;;;;;;-1.40;99.90;;;;;;5062885;28;19925;-70
2023/03/16 05:19:29;;;;;;;;;;;-1.40;99.90;;;;;;5064030;28;20112;-71
2023/03/16 05:21:55;;;;;;;;;;;-1.40;99.90;;;;;;5063396;28;20171;-70
2023/03/16 05:24:23;;;;;;;;;;;-1.30;99.90;;;;;;5063744;28;19987;-71
2023/03/16 05:26:51;;;;;;;;;;;-1.30;99.90;;;;;;5062743;28;19927;-70
2023/03/16 05:29:17;;;;;;;;;;;-1.30;99.90;;;;;;5063697;28;19924;-70
2023/03/16 05:31:45;;;;;;;;;;;-1.30;99.90;;;;;;5063852;28;19928;-70
2023/03/16 05:34:12;;;;;;;;;;;-1.30;99.90;;;;;;5063811;28;19921;-70
2023/03/16 05:36:38;;;;;;;;;;;-1.30;99.90;;;;;;5063408;28;19921;-71
2023/03/16 05:39:07;;;;;;;;;;;-1.30;99.90;;;;;;5063651;28;19992;-70
2023/03/16 05:41:35;;;;;;;;;;;-1.30;99.90;;;;;;5063579;28;19921;-70
2023/03/16 05:44:03;;;;;;;;;;;-1.20;99.90;;;;;;5063710;28;19991;-70
2023/03/16 05:46:29;;;;;;;;;;;-1.20;99.90;;;;;;5062972;28;19921;-70
2023/03/16 05:48:56;;;;;;;;;;;-1.10;99.90;;;;;;5064163;28;19988;-69
2023/03/16 05:51:25;;;;;;;;;;;-1.10;99.90;;;;;;5061097;28;19960;-70
2023/03/16 05:53:55;;;;;;;;;;;-1.20;99.90;;;;;;5063764;28;19920;-70
2023/03/16 05:56:22;;;;;;;;;;;-1.10;99.90;;;;;;5062502;28;19928;-70
2023/03/16 05:58:50;;;;;;;;;;;-1.10;99.90;;;;;;5063231;28;20232;-69
2023/03/16 06:01:17;;;;;;;;;;;-1.20;99.90;;;;;;5063156;28;20120;-69
2023/03/16 06:03:44;;;;;;;;;;;-1.20;99.90;;;;;;5063236;28;19952;-69
2023/03/16 06:06:10;;;;;;;;;;;-1.20;99.90;;;;;;5062644;28;20000;-69
2023/03/16 06:08:37;;;;;;;;;;;-1.20;99.90;;;;;;5063022;28;19920;-70
2023/03/16 06:11:04;;;;;;;;;;;-1.20;99.90;;;;;;5063501;28;19921;-69
2023/03/16 06:13:30;;;;;;;;;;;-1.20;99.90;;;;;;5062999;28;19980;-70
2023/03/16 06:15:58;;;;;;;;;;;-1.20;99.90;;;;;;5062744;28;19929;-69
2023/03/16 06:18:25;;;;;;;;;;;-1.20;99.90;;;;;;5062709;28;19927;-70
2023/03/16 06:20:51;;;;;;;;;;;-1.20;99.90;;;;;;5063450;28;19952;-68
2023/03/16 06:23:19;;;;;;;;;;;-1.30;99.90;;;;;;5063081;28;19959;-69
2023/03/16 06:25:46;;;;;;;;;;;-1.30;99.90;;;;;;5062735;28;19921;-69
2023/03/16 06:28:13;;;;;;;;;;;-1.30;99.90;;;;;;5062661;28;20204;-69
2023/03/16 06:30:40;;;;;;;;;;;-1.30;99.90;;;;;;5063134;28;19927;-70
2023/03/16 06:33:08;;;;;;;;;;;-1.40;99.90;;;;;;5063307;28;19924;-70
2023/03/16 06:35:35;;;;;;;;;;;-1.30;99.90;;;;;;5065620;28;20227;-70
2023/03/16 06:38:01;;;;;;;;;;;-1.30;99.90;;;;;;5066158;28;19959;-69
2023/03/16 06:40:28;;;;;;;;;;;-1.30;99.90;;;;;;5066829;28;19948;-69
2023/03/16 06:42:55;;;;;;;;;;;-1.30;99.90;;;;;;5066648;28;19920;-70
2023/03/16 06:45:22;;;;;;;;;;;-1.30;99.90;;;;;;5066679;28;19983;-69
2023/03/16 06:47:49;;;;;;;;;;;-1.40;99.90;;;;;;5066028;28;19959;-70
2023/03/16 06:50:17;;;;;;;;;;;-1.40;99.90;;;;;;5066784;28;19921;-70
2023/03/16 06:52:43;;;;;;;;;;;-1.40;99.90;;;;;;5066577;28;19987;-70
2023/03/16 06:55:11;;;;;;;;;;;-1.50;99.90;;;;;;5066495;28;20179;-70
2023/03/16 06:57:38;;;;;;;;;;;-1.50;99.90;;;;;;5065615;28;19920;-70
2023/03/16 07:00:06;;;;;;;;;;;-1.50;99.90;;;;;;5066244;28;19984;-70
2023/03/16 07:02:34;;;;;;;;;;;-1.50;99.90;;;;;;5066612;28;19921;-70
2023/03/16 07:05:01;;;;;;;;;;;-1.40;99.90;;;;;;5065937;28;19921;-70
2023/03/16 07:07:29;;;;;;;;;;;-1.40;99.90;;;;;;5065598;28;20135;-70
2023/03/16 07:09:56;;;;;;;;;;;-1.30;99.90;;;;;;5066115;28;19927;-69
2023/03/16 07:12:22;;;;;;;;;;;-1.20;99.90;;;;;;5046048;28;19952;-69
2023/03/16 07:14:50;;;;;;;;;;;-1.20;99.90;;;;;;5046342;28;19984;-70
2023/03/16 07:17:16;;;;;;;;;;;-1.20;99.90;;;;;;5045601;28;19925;-69
2023/03/16 07:19:43;;;;;;;;;;;-1.10;99.90;;;;;;5046111;28;19928;-70
2023/03/16 07:22:09;;;;;;;;;;;-1.00;99.90;;;;;;5046245;28;19925;-69
2023/03/16 07:24:37;;;;;;;;;;;-1.00;99.90;;;;;;5046167;28;19976;-70
2023/03/16 07:27:04;;;;;;;;;;;-1.00;99.90;;;;;;5045420;28;20209;-69
2023/03/16 07:29:31;;;;;;;;;;;-0.90;99.90;;;;;;5046122;28;19967;-69
2023/03/16 07:31:57;;;;;;;;;;;-0.80;99.90;;;;;;5045799;28;19956;-69
2023/03/16 07:34:24;;;;;;;;;;;-0.70;99.90;;;;;;5045692;28;19984;-69
2023/03/16 07:36:51;;;;;;;;;;;-0.60;99.90;;;;;;5045106;28;19963;-69
2023/03/16 07:39:18;;;;;;;;;;;-0.60;99.90;;;;;;5045968;28;19971;-70
2023/03/16 07:41:46;;;;;;;;;;;-0.50;99.90;;;;;;5045890;28;20108;-69
2023/03/16 07:44:13;;;;;;;;;;;-0.50;99.90;;;;;;5045504;28;19921;-69
2023/03/16 07:46:40;;;;;;;;;;;-0.40;99.90;;;;;;5044073;28;20236;-69
2023/03/16 07:49:08;;;;;;;;;;;-0.30;99.90;;;;;;5045705;28;19921;-69
2023/03/16 07:51:35;;;;;;;;;;;-0.30;99.90;;;;;;5049610;28;20155;-69
2023/03/16 07:54:03;;;;;;;;;;;-0.20;99.90;;;;;;5065203;28;19955;-69
2023/03/16 07:56:29;;;;;;;;;;;-0.10;99.90;;;;;;5065251;28;20165;-69
2023/03/16 07:58:57;;;;;;;;;;;-0.10;99.90;;;;;;5064961;28;20115;-69
2023/03/16 08:01:24;;;;;;;;;;;0.00;99.90;;;;;;5064957;28;20227;-69
2023/03/16 08:03:52;;;;;;;;;;;0.10;99.90;;;;;;5065399;28;19980;-69
2023/03/16 08:06:18;;;;;;;;;;;0.20;99.90;;;;;;5064502;28;19921;-69
2023/03/16 08:08:45;;;;;;;;;;;0.30;99.90;;;;;;5064838;28;19984;-69
2023/03/16 08:11:12;;;;;;;;;;;0.30;99.90;;;;;;5065089;28;19974;-69
2023/03/16 08:13:40;;;;;;;;;;;0.40;99.90;;;;;;5064799;28;19921;-69
2023/03/16 08:16:09;;;;;;;;;;;0.50;99.90;;;;;;5064333;28;19928;-69
2023/03/16 08:18:36;;;;;;;;;;;0.60;99.90;;;;;;5064613;28;19927;-69
2023/03/16 08:21:03;;;;;;;;;;;0.60;99.90;;;;;;5064824;28;19927;-69
2023/03/16 08:23:32;;;;;;;;;;;0.70;99.90;;;;;;5064847;28;19964;-68
2023/03/16 08:25:59;;;;;;;;;;;0.80;99.90;;;;;;5064133;28;19943;-69
2023/03/16 08:28:26;;;;;;;;;;;0.90;99.90;;;;;;5064600;28;19931;-69
2023/03/16 08:30:54;;;;;;;;;;;1.10;99.90;;;;;;5064573;28;19967;-69
2023/03/16 08:33:22;;;;;;;;;;;1.10;99.90;;;;;;5064864;28;19924;-69
2023/03/16 08:35:49;;;;;;;;;;;1.20;99.90;;;;;;5063959;28;19920;-69
2023/03/16 08:38:16;;;;;;;;;;;1.30;99.90;;;;;;5064158;28;19967;-69
2023/03/16 08:40:46;;;;;;;;;;;1.40;99.90;;;;;;5064563;28;19983;-69
2023/03/16 08:43:13;;;;;;;;;;;1.50;99.90;;;;;;5064434;28;20119;-69
2023/03/16 08:45:41;;;;;;;;;;;1.50;99.90;;;;;;5064161;28;19924;-69
2023/03/16 08:48:11;;;;;;;;;;;1.70;99.90;;;;;;5063766;28;19996;-69
2023/03/16 08:50:42;;;;;;;;;;;1.70;99.90;;;;;;5064545;28;19983;-69
2023/03/16 08:53:08;;;;;;;;;;;1.80;99.90;;;;;;5064397;28;19921;-69
2023/03/16 08:55:35;;;;;;;;;;;1.90;99.90;;;;;;5064157;28;19921;-69
2023/03/16 08:58:02;;;;;;;;;;;2.00;99.90;;;;;;5062904;28;19928;-69
2023/03/16 09:00:29;;;;;;;;;;;2.00;99.90;;;;;;5064613;28;19921;-69
2023/03/16 09:02:56;;;;;;;;;;;2.10;99.90;;;;;;5064231;28;19921;-69
2023/03/16 09:05:23;;;;;;;;;;;2.20;99.90;;;;;;5064147;28;19921;-67
2023/03/16 09:07:52;;;;;;;;;;;2.30;99.90;;;;;;5063518;28;19927;-69
2023/03/16 09:10:19;;;;;;;;;;;2.40;99.90;;;;;;5063853;28;19921;-68
2023/03/16 09:12:46;;;;;;;;;;;2.40;99.90;;;;;;5063817;28;19927;-69
2023/03/16 09:15:13;;;;;;;;;;;2.50;99.90;;;;;;5063926;28;19921;-69
2023/03/16 09:17:41;;;;;;;;;;;2.60;99.90;;;;;;5063349;28;19925;-69
2023/03/16 09:20:09;;;;;;;;;;;2.70;99.90;;;;;;5063643;28;20213;-71
2023/03/16 09:22:36;;;;;;;;;;;2.70;99.90;;;;;;5063616;28;19921;-69
2023/03/16 09:25:05;;;;;;;;;;;2.80;99.90;;;;;;5063600;28;20116;-69
2023/03/16 09:27:32;;;;;;;;;;;2.90;99.90;;;;;;5062701;28;19921;-69
2023/03/16 09:29:59;;;;;;;;;;;2.90;99.90;;;;;;5063750;28;20260;-69
2023/03/16 09:32:26;;;;;;;;;;;3.00;99.90;;;;;;5063727;28;19924;-69
2023/03/16 09:34:53;;;;;;;;;;;3.10;99.90;;;;;;5058058;28;19963;-69
2023/03/16 09:37:26;;;;;;;;;;;3.20;99.90;;;;;;5040804;28;19936;-69
2023/03/16 09:39:53;;;;;;;;;;;3.30;99.90;;;;;;5043523;28;19928;-69
2023/03/16 09:42:26;;;;;;;;;;;3.30;99.90;;;;;;5043806;28;19988;-69
2023/03/16 09:44:59;;;;;;;;;;;3.50;99.90;;;;;;5043691;28;19984;-69
2023/03/16 09:47:28;;;;;;;;;;;3.50;99.90;;;;;;5053021;28;19920;-69
2023/03/16 09:49:56;;;;;;;;;;;3.60;99.90;;;;;;5063558;28;19980;-69
2023/03/16 09:52:29;;;;;;;;;;;3.60;99.90;;;;;;5063284;28;19959;-69
2023/03/16 09:58:17;;;;;;;;;;;3.90;99.90;;;;;;5042637;28;19948;-69
2023/03/16 10:03:57;;;;;;;;;;;4.10;99.90;;;;;;5058998;28;20227;-69
2023/03/16 10:06:25;;;;;;;;;;;4.20;99.90;;;;;;5046966;28;19927;-69
2023/03/16 10:08:59;;;;;;;;;;;4.30;99.90;;;;;;5065188;28;19921;-70
2023/03/16 10:11:30;;;;;;;;;;;4.30;99.90;;;;;;5066741;28;19952;-69
2023/03/16 10:14:00;;;;;;;;;;;4.50;99.90;;;;;;5067422;28;19980;-69
2023/03/16 10:16:30;;;;;;;;;;;4.60;99.90;;;;;;5066514;28;19925;-69
2023/03/16 10:19:01;;;;;;;;;;;4.70;99.90;;;;;;5066772;28;19921;-71
2023/03/16 10:21:28;;;;;;;;;;;4.80;99.90;;;;;;5067256;28;19920;-69
2023/03/16 10:24:00;;;;;;;;;;;4.90;99.90;;;;;;5067233;28;19920;-70
2023/03/16 10:26:31;;;;;;;;;;;5.00;99.90;;;;;;5066406;28;20116;-70
2023/03/16 10:28:59;;;;;;;;;;;5.10;99.90;;;;;;5066787;28;19920;-70
2023/03/16 10:31:27;;;;;;;;;;;5.30;99.90;;;;;;5066793;28;19921;-70
2023/03/16 10:33:57;;;;;;;;;;;5.40;99.90;;;;;;5066500;28;19963;-70
2023/03/16 10:36:29;;;;;;;;;;;5.60;99.90;;;;;;5065639;28;19962;-70
2023/03/16 10:38:58;;;;;;;;;;;5.70;99.90;;;;;;5066600;28;19920;-70
2023/03/16 10:41:27;;;;;;;;;;;5.80;99.90;;;;;;5066964;28;20120;-70
2023/03/16 10:43:56;;;;;;;;;;;5.90;99.90;;;;;;5066837;28;19942;-70
2023/03/16 10:46:23;;;;;;;;;;;6.00;99.90;;;;;;5066224;28;20093;-70
2023/03/16 10:48:58;;;;;;;;;;;6.20;99.90;;;;;;5066407;28;20212;-70
2023/03/16 10:51:28;;;;;;;;;;;6.20;99.90;;;;;;5066469;28;19927;-70
2023/03/16 10:53:57;;;;;;;;;;;6.30;99.90;;;;;;5066387;28;19979;-69
2023/03/16 10:56:26;;;;;;;;;;;6.50;99.90;;;;;;5066048;28;20089;-69
2023/03/16 10:58:53;;;;;;;;;;;6.70;99.90;;;;;;5066472;28;19921;-70
2023/03/16 11:01:22;;;;;;;;;;;6.80;99.90;;;;;;5066285;28;20180;-70
2023/03/16 11:03:50;;;;;;;;;;;6.90;99.90;;;;;;5066294;28;19920;-69
2023/03/16 11:06:21;;;;;;;;;;;7.00;99.90;;;;;;5065397;28;19921;-70
2023/03/16 11:08:49;;;;;;;;;;;7.20;99.90;;;;;;5065973;28;19991;-70
2023/03/16 11:11:18;;;;;;;;;;;7.20;99.90;;;;;;5066124;28;19980;-70
2023/03/16 11:13:45;;;;;;;;;;;7.30;99.90;;;;;;5066075;28;19927;-70
2023/03/16 11:16:21;;;;;;;;;;;7.40;99.90;;;;;;5045182;28;20136;-69
2023/03/16 11:18:50;;;;;;;;;;;7.60;99.90;;;;;;5046082;28;19984;-70
2023/03/16 11:21:24;;;;;;;;;;;7.60;99.90;;;;;;5045046;28;19921;-70
2023/03/16 11:23:54;;;;;;;;;;;7.70;99.90;;;;;;5046003;28;19992;-70
2023/03/16 11:26:24;;;;;;;;;;;7.90;99.90;;;;;;5045784;28;19959;-70
2023/03/16 11:28:53;;;;;;;;;;;8.00;99.90;;;;;;5045684;28;19921;-70
2023/03/16 11:31:23;;;;;;;;;;;8.00;99.90;;;;;;5045941;28;19975;-70
2023/03/16 11:33:50;;;;;;;;;;;8.00;99.90;;;;;;5045786;28;19925;-70
2023/03/16 11:36:28;;;;;;;;;;;8.20;99.90;;;;;;5043300;28;19980;-70
2023/03/16 11:39:01;;;;;;;;;;;8.40;99.90;;;;;;5045658;28;19943;-69
2023/03/16 11:41:33;;;;;;;;;;;8.50;99.90;;;;;;5050257;28;19921;-69
2023/03/16 11:44:02;;;;;;;;;;;8.50;99.90;;;;;;5065570;28;19920;-70
2023/03/16 11:46:30;;;;;;;;;;;8.40;99.90;;;;;;5044846;28;19984;-70
2023/03/16 11:49:01;;;;;;;;;;;8.40;99.90;;;;;;5045261;28;19921;-70
2023/03/16 11:51:34;;;;;;;;;;;8.60;99.90;;;;;;5045362;28;19984;-70
2023/03/16 11:54:09;;;;;;;;;;;8.90;99.90;;;;;;5045356;28;19987;-70
2023/03/16 11:56:39;;;;;;;;;;;9.10;99.90;;;;;;5044528;28;19921;-70
2023/03/16 11:59:13;;;;;;;;;;;9.40;99.90;;;;;;5045262;28;19921;-70
2023/03/16 12:01:47;;;;;;;;;;;9.60;99.90;;;;;;5045093;28;19963;-70
2023/03/16 12:04:30;;;;;;;;;;;9.80;99.90;;;;;;5051970;28;19924;-70
2023/03/16 12:07:02;;;;;;;;;;;9.70;99.90;;;;;;5063248;28;20137;-70
2023/03/16 12:09:49;;;;;;;;;;;9.80;99.90;;;;;;5064384;28;19988;-70
2023/03/16 12:12:25;;;;;;;;;;;10.00;99.90;;;;;;5064545;28;19927;-70
2023/03/16 12:14:55;;;;;;;;;;;10.20;99.90;;;;;;5064096;28;19983;-69
2023/03/16 12:17:25;;;;;;;;;;;10.40;99.90;;;;;;5064297;28;19992;-70
2023/03/16 12:19:53;;;;;;;;;;;10.50;99.90;;;;;;5064872;28;19920;-70
2023/03/16 12:22:21;;;;;;;;;;;10.50;99.90;;;;;;5064858;28;20093;-69
2023/03/16 12:24:48;;;;;;;;;;;10.50;99.90;;;;;;5064655;28;19921;-70
2023/03/16 12:27:16;;;;;;;;;;;10.50;99.90;;;;;;5063998;28;19925;-69
2023/03/16 12:29:49;;;;;;;;;;;10.70;99.90;;;;;;5064817;28;19987;-69
2023/03/16 12:32:19;;;;;;;;;;;10.70;99.90;;;;;;5063571;28;19927;-70
2023/03/16 12:34:49;;;;;;;;;;;10.80;99.90;;;;;;5064505;28;19927;-70
2023/03/16 12:37:26;;;;;;;;;;;11.10;99.90;;;;;;5061407;28;19925;-70
2023/03/16 12:40:07;;;;;;;;;;;11.30;99.90;;;;;;5064153;28;19921;-71
2023/03/16 12:42:49;;;;;;;;;;;11.40;99.90;;;;;;5064274;28;19944;-70
2023/03/16 12:45:22;;;;;;;;;;;11.50;99.90;;;;;;5062115;28;20128;-70
2023/03/16 12:47:52;;;;;;;;;;;11.60;99.90;;;;;;5057545;28;19920;-69
2023/03/16 12:50:19;;;;;;;;;;;11.50;99.90;;;;;;5063746;28;19921;-70
2023/03/16 12:52:47;;;;;;;;;;;11.60;99.90;;;;;;5064072;28;19991;-71
2023/03/16 12:55:15;;;;;;;;;;;11.60;99.90;;;;;;5063674;28;19996;-70
2023/03/16 12:57:42;;;;;;;;;;;11.60;99.90;;;;;;5063254;28;19927;-69
2023/03/16 13:00:10;;;;;;;;;;;11.70;99.90;;;;;;5064357;28;20004;-70
2023/03/16 13:02:41;;;;;;;;;;;11.80;99.90;;;;;;5064166;28;19948;-70
2023/03/16 13:05:09;;;;;;;;;;;11.60;99.90;;;;;;5063665;28;19921;-70
2023/03/16 13:07:38;;;;;;;;;;;11.80;99.90;;;;;;5061934;28;19959;-69
2023/03/16 13:10:08;;;;;;;;;;;11.90;99.90;;;;;;5063619;28;19948;-70
2023/03/16 13:12:37;;;;;;;;;;;11.60;99.60;;;;;;5063843;28;19927;-70
2023/03/16 13:15:15;;;;;;;;;;;11.60;99.90;;;;;;5063090;28;19921;-71
2023/03/16 13:17:45;;;;;;;;;;;11.50;99.30;;;;;;5061463;28;19928;-70
2023/03/16 13:20:25;;;;;;;;;;;11.40;99.90;;;;;;5063647;28;19921;-70
2023/03/16 13:23:07;;;;;;;;;;;11.40;99.90;;;;;;5062101;28;19920;-69
2023/03/16 13:25:41;;;;;;;;;;;11.40;99.90;;;;;;5054801;28;19925;-71
2023/03/16 13:28:10;;;;;;;;;;;11.50;99.90;;;;;;5063204;28;19984;-70
2023/03/16 13:30:37;;;;;;;;;;;11.70;99.90;;;;;;5063821;28;19925;-71
2023/03/16 13:33:12;;;;;;;;;;;11.80;99.90;;;;;;5063843;28;19921;-70
2023/03/16 13:35:40;;;;;;;;;;;12.10;99.90;;;;;;5063449;28;19924;-71
2023/03/16 13:38:14;;;;;;;;;;;12.40;99.90;;;;;;5061207;28;19988;-70
2023/03/16 13:40:45;;;;;;;;;;;12.60;99.90;;;;;;5063392;28;19928;-70
2023/03/16 13:43:14;;;;;;;;;;;12.80;99.90;;;;;;5063050;28;19921;-70
2023/03/16 13:45:41;;;;;;;;;;;12.80;99.90;;;;;;5063375;28;19927;-70
2023/03/16 13:48:12;;;;;;;;;;;12.60;99.90;;;;;;5046427;28;20201;-71
2023/03/16 13:50:41;;;;;;;;;;;12.50;99.90;;;;;;5047845;28;20263;-70
2023/03/16 13:53:13;;;;;;;;;;;12.40;99.90;;;;;;5061752;28;19921;-70
2023/03/16 13:55:40;;;;;;;;;;;12.40;99.90;;;;;;5049201;28;19980;-70
2023/03/16 13:58:18;;;;;;;;;;;12.40;98.20;;;;;;5059402;28;19925;-70
2023/03/16 14:00:45;;;;;;;;;;;12.70;98.90;;;;;;5063256;28;19988;-71
2023/03/16 14:03:16;;;;;;;;;;;12.80;98.30;;;;;;5062853;28;19944;-70
2023/03/16 14:05:43;;;;;;;;;;;12.90;98.30;;;;;;5062760;28;19982;-70
2023/03/16 14:08:17;;;;;;;;;;;12.70;96.40;;;;;;5062529;28;19920;-69
2023/03/16 14:10:44;;;;;;;;;;;12.20;96.20;;;;;;5063413;28;19984;-69
2023/03/16 14:13:22;;;;;;;;;;;11.90;97.90;;;;;;5063134;28;20159;-70
2023/03/16 14:15:49;;;;;;;;;;;12.00;99.90;;;;;;5062649;28;19927;-70
2023/03/16 14:18:20;;;;;;;;;;;12.40;97.30;;;;;;5060357;28;19924;-70
2023/03/16 14:20:47;;;;;;;;;;;12.40;97.50;;;;;;5063018;28;19944;-70
2023/03/16 14:23:17;;;;;;;;;;;12.60;99.20;;;;;;5063041;28;19991;-69
2023/03/16 14:25:44;;;;;;;;;;;12.80;99.90;;;;;;5047360;28;20107;-69
2023/03/16 14:28:14;;;;;;;;;;;13.00;98.60;;;;;;5042725;28;19921;-70
2023/03/16 14:30:49;;;;;;;;;;;13.10;97.60;;;;;;5046399;28;19921;-69
2023/03/16 14:33:25;;;;;;;;;;;13.00;96.60;;;;;;5062270;28;19952;-71
2023/03/16 14:35:54;;;;;;;;;;;13.00;97.50;;;;;;5061344;28;20256;-70